createdAt,value
2018-12-14T00:00:33.307Z,83.53
2018-12-14T00:01:33.267Z,83.42
2018-12-14T00:02:33.255Z,83.53
2018-12-14T00:03:33.245Z,83.53
2018-12-14T00:04:33.231Z,83.01
2018-12-14T00:05:33.221Z,83.53
2018-12-14T00:06:33.252Z,83.42
2018-12-14T00:07:33.197Z,83.63
2018-12-14T00:08:33.192Z,83.63
2018-12-14T00:09:33.174Z,83.42
2018-12-14T00:10:33.167Z,83.53
2018-12-14T00:11:33.157Z,83.42
2018-12-14T00:12:33.186Z,83.74
2018-12-14T00:13:33.131Z,83.42
2018-12-14T00:14:33.119Z,83.42
2018-12-14T00:15:33.109Z,83.63
2018-12-14T00:16:33.103Z,83.42
2018-12-14T00:17:33.085Z,83.39
2018-12-14T00:18:33.105Z,83.18
2018-12-14T00:19:33.063Z,83.18
2018-12-14T00:20:33.052Z,83.11
2018-12-14T00:21:33.055Z,83.11
2018-12-14T00:22:33.036Z,83.42
2018-12-14T00:23:33.020Z,83.49
2018-12-14T00:24:33.045Z,83.59
2018-12-14T00:25:33.000Z,83.28
2018-12-14T00:26:32.992Z,83.18
2018-12-14T00:27:32.975Z,83.22
2018-12-14T00:28:32.974Z,82.97
2018-12-14T00:29:32.954Z,82.76
2018-12-14T00:30:32.971Z,83.18
2018-12-14T00:31:32.932Z,83.59
2018-12-14T00:32:32.922Z,83.42
2018-12-14T00:33:32.920Z,83.53
2018-12-14T00:34:32.896Z,83.84
2018-12-14T00:35:32.885Z,83.63
2018-12-14T00:36:32.904Z,83.74
2018-12-14T00:37:32.862Z,83.84
2018-12-14T00:38:32.852Z,84.19
2018-12-14T00:39:32.905Z,84.36
2018-12-14T00:40:32.830Z,84.36
2018-12-14T00:41:32.820Z,84.05
2018-12-14T00:42:32.842Z,84.36
2018-12-14T00:43:32.799Z,84.47
2018-12-14T00:44:32.788Z,84.36
2018-12-14T00:45:32.777Z,83.84
2018-12-14T00:46:32.763Z,83.84
2018-12-14T00:47:32.753Z,83.74
2018-12-14T00:48:32.777Z,83.42
2018-12-14T00:49:32.730Z,83.63
2018-12-14T00:50:32.728Z,83.74
2018-12-14T00:51:32.707Z,83.74
2018-12-14T00:52:32.696Z,83.95
2018-12-14T00:53:32.687Z,83.84
2018-12-14T00:54:32.703Z,83.95
2018-12-14T00:55:32.664Z,84.05
2018-12-14T00:56:32.658Z,83.74
2018-12-14T00:57:32.644Z,83.84
2018-12-14T00:58:32.630Z,83.74
2018-12-14T00:59:32.626Z,83.63
2018-12-14T01:00:32.637Z,83.84
2018-12-14T01:01:32.603Z,83.74
2018-12-14T01:02:32.597Z,83.95
2018-12-14T01:03:32.573Z,84.05
2018-12-14T01:04:32.562Z,84.57
2018-12-14T01:05:32.551Z,84.72
2018-12-14T01:06:32.568Z,84.82
2018-12-14T01:07:32.529Z,84.47
2018-12-14T01:08:32.519Z,84.57
2018-12-14T01:09:32.508Z,84.36
2018-12-14T01:10:32.496Z,84.36
2018-12-14T01:11:32.486Z,84.26
2018-12-14T01:12:32.506Z,84.36
2018-12-14T01:13:32.465Z,83.84
2018-12-14T01:14:32.453Z,84.47
2018-12-14T01:15:32.440Z,84.26
2018-12-14T01:16:32.430Z,84.26
2018-12-14T01:17:32.428Z,84.57
2018-12-14T01:18:32.437Z,84.47
2018-12-14T01:19:32.400Z,84.47
2018-12-14T01:20:32.389Z,84.05
2018-12-14T01:21:32.375Z,84.82
2018-12-14T01:22:32.362Z,85.03
2018-12-14T01:23:32.354Z,84.72
2018-12-14T01:24:32.367Z,84.57
2018-12-14T01:25:32.333Z,85.03
2018-12-14T01:26:32.325Z,84.72
2018-12-14T01:27:32.309Z,84.99
2018-12-14T01:28:32.299Z,84.88
2018-12-14T01:29:32.284Z,84.78
2018-12-14T01:30:32.303Z,84.67
2018-12-14T01:31:32.262Z,84.67
2018-12-14T01:32:32.251Z,84.36
2018-12-14T01:33:32.240Z,84.36
2018-12-14T01:34:32.229Z,84.67
2018-12-14T01:35:32.217Z,84.47
2018-12-14T01:36:32.241Z,84.47
2018-12-14T01:37:32.195Z,84.47
2018-12-14T01:38:32.183Z,84.47
2018-12-14T01:39:32.172Z,84.16
2018-12-14T01:40:32.166Z,84.36
2018-12-14T01:41:32.150Z,84.36
2018-12-14T01:42:32.170Z,84.36
2018-12-14T01:43:32.130Z,84.36
2018-12-14T01:44:32.116Z,83.95
2018-12-14T01:45:32.106Z,83.84
2018-12-14T01:46:32.095Z,83.74
2018-12-14T01:47:32.084Z,83.95
2018-12-14T01:48:32.100Z,83.84
2018-12-14T01:49:32.066Z,83.74
2018-12-14T01:50:32.049Z,84.05
2018-12-14T01:51:32.040Z,84.26
2018-12-14T01:52:32.025Z,84.33
2018-12-14T01:53:32.027Z,84.05
2018-12-14T01:54:32.033Z,83.95
2018-12-14T01:55:31.993Z,84.05
2018-12-14T01:56:31.986Z,84.16
2018-12-14T01:57:31.972Z,84.26
2018-12-14T01:58:31.962Z,84.26
2018-12-14T01:59:31.954Z,84.40
2018-12-14T02:00:31.965Z,84.50
2018-12-14T02:01:31.927Z,84.67
2018-12-14T02:02:31.915Z,84.36
2018-12-14T02:03:31.903Z,84.61
2018-12-14T02:04:31.892Z,84.72
2018-12-14T02:05:31.885Z,84.61
2018-12-14T02:06:31.906Z,84.82
2018-12-14T02:07:31.859Z,84.88
2018-12-14T02:08:31.847Z,84.92
2018-12-14T02:09:31.839Z,84.72
2018-12-14T02:10:31.825Z,84.92
2018-12-14T02:11:31.813Z,84.82
2018-12-14T02:12:31.831Z,84.88
2018-12-14T02:13:31.791Z,84.47
2018-12-14T02:14:31.781Z,84.36
2018-12-14T02:15:31.775Z,84.16
2018-12-14T02:16:31.757Z,84.26
2018-12-14T02:17:31.746Z,84.16
2018-12-14T02:18:31.766Z,83.84
2018-12-14T02:19:31.723Z,83.95
2018-12-14T02:20:31.720Z,83.95
2018-12-14T02:21:31.700Z,83.84
2018-12-14T02:22:31.691Z,83.74
2018-12-14T02:23:31.680Z,83.95
2018-12-14T02:24:31.702Z,84.05
2018-12-14T02:25:31.657Z,83.84
2018-12-14T02:26:31.656Z,83.74
2018-12-14T02:27:31.636Z,83.84
2018-12-14T02:28:31.634Z,84.47
2018-12-14T02:29:31.612Z,84.40
2018-12-14T02:30:31.641Z,84.36
2018-12-14T02:31:31.602Z,83.95
2018-12-14T02:32:31.577Z,83.74
2018-12-14T02:33:31.568Z,84.05
2018-12-14T02:34:31.573Z,83.95
2018-12-14T02:35:31.546Z,83.88
2018-12-14T02:36:31.563Z,84.40
2018-12-14T02:37:31.526Z,84.19
2018-12-14T02:38:31.516Z,84.30
2018-12-14T02:39:31.601Z,84.40
2018-12-14T02:40:31.490Z,84.50
2018-12-14T02:41:31.482Z,84.61
2018-12-14T02:42:31.498Z,84.36
2018-12-14T02:43:31.463Z,84.16
2018-12-14T02:44:31.447Z,84.40
2018-12-14T02:45:31.438Z,84.30
2018-12-14T02:46:31.422Z,83.84
2018-12-14T02:47:31.410Z,83.95
2018-12-14T02:48:31.431Z,83.84
2018-12-14T02:49:31.388Z,83.63
2018-12-14T02:50:31.379Z,83.32
2018-12-14T02:51:31.367Z,83.63
2018-12-14T02:52:31.359Z,83.53
2018-12-14T02:53:31.345Z,83.11
2018-12-14T02:54:31.363Z,82.87
2018-12-14T02:55:31.324Z,82.76
2018-12-14T02:56:31.310Z,82.80
2018-12-14T02:57:31.301Z,82.07
2018-12-14T02:58:31.287Z,82.28
2018-12-14T02:59:31.279Z,82.48
2018-12-14T03:00:31.291Z,82.80
2018-12-14T03:01:31.265Z,82.70
2018-12-14T03:02:31.243Z,83.01
2018-12-14T03:03:31.250Z,83.22
2018-12-14T03:04:31.221Z,83.22
2018-12-14T03:05:31.212Z,83.11
2018-12-14T03:06:31.236Z,83.22
2018-12-14T03:07:31.186Z,83.22
2018-12-14T03:08:31.178Z,83.32
2018-12-14T03:09:31.166Z,83.01
2018-12-14T03:10:31.154Z,82.80
2018-12-14T03:11:31.148Z,82.17
2018-12-14T03:12:31.164Z,82.07
2018-12-14T03:13:31.124Z,81.93
2018-12-14T03:14:31.115Z,82.17
2018-12-14T03:15:31.098Z,82.17
2018-12-14T03:16:31.090Z,82.80
2018-12-14T03:17:31.077Z,83.15
2018-12-14T03:18:31.095Z,83.25
2018-12-14T03:19:31.053Z,83.22
2018-12-14T03:20:31.049Z,83.22
2018-12-14T03:21:31.030Z,83.32
2018-12-14T03:22:31.025Z,83.11
2018-12-14T03:23:31.010Z,83.11
2018-12-14T03:24:31.025Z,83.01
2018-12-14T03:25:30.991Z,83.11
2018-12-14T03:26:30.984Z,83.11
2018-12-14T03:27:30.966Z,83.11
2018-12-14T03:28:30.957Z,83.22
2018-12-14T03:29:30.943Z,82.38
2018-12-14T03:30:30.964Z,81.86
2018-12-14T03:31:30.939Z,81.86
2018-12-14T03:32:30.915Z,81.86
2018-12-14T03:33:30.898Z,81.59
2018-12-14T03:34:30.886Z,82.31
2018-12-14T03:35:30.876Z,82.10
2018-12-14T03:36:30.893Z,82.73
2018-12-14T03:37:30.855Z,83.01
2018-12-14T03:38:30.842Z,82.94
2018-12-14T03:39:30.831Z,82.63
2018-12-14T03:40:30.838Z,82.42
2018-12-14T03:41:30.807Z,82.42
2018-12-14T03:42:34.261Z,82.73
2018-12-14T03:43:30.794Z,82.63
2018-12-14T03:44:30.785Z,82.70
2018-12-14T03:45:30.761Z,82.21
2018-12-14T03:46:30.756Z,82.07
2018-12-14T03:47:30.750Z,82.21
2018-12-14T03:48:30.757Z,82.21
2018-12-14T03:49:30.717Z,82.63
2018-12-14T03:50:30.707Z,82.21
2018-12-14T03:51:30.698Z,82.10
2018-12-14T03:52:30.684Z,82.07
2018-12-14T03:53:30.679Z,82.21
2018-12-14T03:54:30.688Z,81.59
2018-12-14T03:55:30.651Z,82.10
2018-12-14T03:56:30.639Z,81.79
2018-12-14T03:57:30.628Z,81.59
2018-12-14T03:58:30.623Z,81.86
2018-12-14T03:59:30.610Z,81.69
2018-12-14T04:00:30.620Z,81.65
2018-12-14T04:01:30.586Z,81.86
2018-12-14T04:02:30.572Z,82.10
2018-12-14T04:03:30.562Z,82.28
2018-12-14T04:04:30.550Z,81.55
2018-12-14T04:05:30.540Z,81.96
2018-12-14T04:06:30.561Z,81.69
2018-12-14T04:07:30.528Z,81.79
2018-12-14T04:08:30.505Z,81.90
2018-12-14T04:09:30.493Z,81.59
2018-12-14T04:10:30.485Z,81.59
2018-12-14T04:11:30.472Z,82.00
2018-12-14T04:12:30.495Z,82.17
2018-12-14T04:13:30.451Z,81.59
2018-12-14T04:14:30.439Z,82.00
2018-12-14T04:15:30.429Z,82.42
2018-12-14T04:16:30.419Z,82.00
2018-12-14T04:17:30.411Z,82.31
2018-12-14T04:18:30.421Z,81.96
2018-12-14T04:19:42.365Z,81.55
2018-12-14T04:20:30.374Z,82.07
2018-12-14T04:21:30.361Z,82.17
2018-12-14T04:22:30.357Z,81.90
2018-12-14T04:23:30.344Z,81.48
2018-12-14T04:24:30.359Z,82.73
2018-12-14T04:25:30.318Z,82.73
2018-12-14T04:26:30.304Z,82.21
2018-12-14T04:27:30.295Z,82.73
2018-12-14T04:28:30.283Z,83.04
2018-12-14T04:29:30.276Z,82.53
2018-12-14T04:30:30.288Z,82.73
2018-12-14T04:31:30.248Z,82.63
2018-12-14T04:32:30.238Z,82.63
2018-12-14T04:33:30.225Z,82.84
2018-12-14T04:34:30.222Z,82.84
2018-12-14T04:35:30.206Z,82.73
2018-12-14T04:36:30.234Z,82.73
2018-12-14T04:37:30.183Z,82.73
2018-12-14T04:38:30.170Z,82.84
2018-12-14T04:39:31.205Z,83.04
2018-12-14T04:40:30.148Z,82.73
2018-12-14T04:41:30.142Z,82.53
2018-12-14T04:42:30.146Z,82.73
2018-12-14T04:43:30.115Z,82.63
2018-12-14T04:44:30.104Z,82.28
2018-12-14T04:45:30.098Z,81.96
2018-12-14T04:46:30.081Z,82.17
2018-12-14T04:47:30.090Z,82.21
2018-12-14T04:48:30.059Z,82.59
2018-12-14T04:49:30.052Z,82.73
2018-12-14T04:50:30.039Z,82.63
2018-12-14T04:51:30.029Z,83.11
2018-12-14T04:52:30.042Z,83.22
2018-12-14T04:53:30.004Z,83.47
2018-12-14T04:54:29.993Z,83.57
2018-12-14T04:55:29.983Z,83.57
2018-12-14T04:56:29.973Z,83.36
2018-12-14T04:57:30.006Z,83.78
2018-12-14T04:58:29.948Z,83.04
2018-12-14T04:59:29.940Z,83.36
2018-12-14T05:00:29.927Z,83.47
2018-12-14T05:01:29.914Z,83.78
2018-12-14T05:02:29.921Z,84.09
2018-12-14T05:03:29.893Z,83.88
2018-12-14T05:04:29.883Z,84.02
2018-12-14T05:05:29.871Z,84.34
2018-12-14T05:06:31.487Z,84.12
2018-12-14T05:07:29.866Z,84.09
2018-12-14T05:08:29.835Z,84.23
2018-12-14T05:09:29.828Z,84.30
2018-12-14T05:10:29.814Z,84.02
2018-12-14T05:11:29.808Z,84.02
2018-12-14T05:12:29.815Z,83.81
2018-12-14T05:13:29.781Z,84.44
2018-12-14T05:14:29.777Z,84.30
2018-12-14T05:15:29.766Z,84.02
2018-12-14T05:16:29.749Z,84.12
2018-12-14T05:17:29.755Z,84.12
2018-12-14T05:18:29.725Z,84.02
2018-12-14T05:19:29.714Z,84.34
2018-12-14T05:20:29.710Z,84.86
2018-12-14T05:21:29.695Z,84.89
2018-12-14T05:22:29.700Z,84.75
2018-12-14T05:23:29.669Z,84.55
2018-12-14T05:24:29.658Z,84.44
2018-12-14T05:25:29.647Z,84.44
2018-12-14T05:26:29.650Z,84.44
2018-12-14T05:27:29.655Z,83.81
2018-12-14T05:28:29.614Z,83.81
2018-12-14T05:29:29.602Z,83.92
2018-12-14T05:30:29.590Z,83.81
2018-12-14T05:31:29.581Z,83.92
2018-12-14T05:32:29.591Z,83.81
2018-12-14T05:33:29.559Z,83.50
2018-12-14T05:34:29.546Z,83.57
2018-12-14T05:35:29.542Z,83.57
2018-12-14T05:36:29.525Z,83.40
2018-12-14T05:37:29.530Z,83.50
2018-12-14T05:38:29.503Z,83.67
2018-12-14T05:39:29.491Z,83.81
2018-12-14T05:40:29.479Z,83.25
2018-12-14T05:41:29.467Z,83.47
2018-12-14T05:42:29.473Z,83.47
2018-12-14T05:43:29.453Z,83.71
2018-12-14T05:44:29.439Z,83.81
2018-12-14T05:45:29.422Z,84.02
2018-12-14T05:46:29.415Z,83.92
2018-12-14T05:47:29.430Z,83.61
2018-12-14T05:48:29.397Z,83.61
2018-12-14T05:49:29.382Z,83.78
2018-12-14T05:50:29.366Z,83.98
2018-12-14T05:51:29.356Z,83.81
2018-12-14T05:52:29.361Z,83.50
2018-12-14T05:53:29.334Z,83.50
2018-12-14T05:54:29.329Z,83.71
2018-12-14T05:55:29.311Z,83.92
2018-12-14T05:56:29.305Z,83.71
2018-12-14T05:57:29.311Z,83.81
2018-12-14T05:58:29.280Z,83.85
2018-12-14T05:59:29.272Z,83.92
2018-12-14T06:00:29.258Z,84.02
2018-12-14T06:01:29.243Z,84.06
2018-12-14T06:02:29.250Z,84.02
2018-12-14T06:03:29.227Z,84.23
2018-12-14T06:04:29.210Z,84.12
2018-12-14T06:05:29.210Z,83.81
2018-12-14T06:06:29.190Z,83.61
2018-12-14T06:07:29.195Z,83.40
2018-12-14T06:08:29.167Z,83.40
2018-12-14T06:09:29.157Z,83.61
2018-12-14T06:10:29.145Z,83.71
2018-12-14T06:11:29.138Z,83.81
2018-12-14T06:12:29.148Z,83.50
2018-12-14T06:13:29.111Z,83.50
2018-12-14T06:14:29.099Z,83.50
2018-12-14T06:15:29.091Z,83.61
2018-12-14T06:16:29.078Z,83.50
2018-12-14T06:17:29.086Z,83.50
2018-12-14T06:18:29.054Z,83.40
2018-12-14T06:19:29.044Z,83.29
2018-12-14T06:20:29.033Z,83.40
2018-12-14T06:21:29.021Z,83.71
2018-12-14T06:22:29.027Z,83.50
2018-12-14T06:23:29.031Z,83.50
2018-12-14T06:24:29.031Z,83.71
2018-12-14T06:25:28.979Z,83.61
2018-12-14T06:26:28.967Z,83.71
2018-12-14T06:27:28.971Z,83.50
2018-12-14T06:28:28.950Z,83.81
2018-12-14T06:29:28.932Z,83.40
2018-12-14T06:30:28.922Z,83.71
2018-12-14T06:31:28.910Z,83.81
2018-12-14T06:32:28.919Z,83.61
2018-12-14T06:33:28.890Z,83.50
2018-12-14T06:34:28.882Z,83.71
2018-12-14T06:35:28.866Z,83.40
2018-12-14T06:36:28.854Z,83.61
2018-12-14T06:37:28.872Z,82.87
2018-12-14T06:38:28.833Z,82.77
2018-12-14T06:39:28.824Z,82.84
2018-12-14T06:40:28.810Z,82.84
2018-12-14T06:41:28.799Z,82.73
2018-12-14T06:42:28.839Z,82.84
2018-12-14T06:43:28.798Z,83.15
2018-12-14T06:44:28.764Z,83.25
2018-12-14T06:45:28.758Z,83.18
2018-12-14T06:46:28.746Z,83.08
2018-12-14T06:47:28.734Z,83.29
2018-12-14T06:48:28.752Z,83.25
2018-12-14T06:49:28.710Z,83.36
2018-12-14T06:50:28.709Z,83.04
2018-12-14T06:51:28.689Z,83.15
2018-12-14T06:52:28.676Z,83.29
2018-12-14T06:53:28.667Z,82.87
2018-12-14T06:54:28.673Z,82.98
2018-12-14T06:55:28.643Z,82.63
2018-12-14T06:56:28.635Z,82.77
2018-12-14T06:57:28.622Z,83.29
2018-12-14T06:58:28.609Z,83.40
2018-12-14T06:59:28.614Z,83.29
2018-12-14T07:00:28.588Z,83.08
2018-12-14T07:01:28.576Z,82.67
2018-12-14T07:02:28.566Z,83.08
2018-12-14T07:03:28.554Z,83.40
2018-12-14T07:04:28.574Z,83.40
2018-12-14T07:05:28.534Z,83.71
2018-12-14T07:06:28.524Z,83.18
2018-12-14T07:07:28.516Z,82.98
2018-12-14T07:08:28.500Z,83.08
2018-12-14T07:09:28.488Z,82.87
2018-12-14T07:10:28.497Z,83.12
2018-12-14T07:11:28.465Z,82.77
2018-12-14T07:12:28.459Z,83.08
2018-12-14T07:13:28.443Z,83.18
2018-12-14T07:14:28.436Z,83.40
2018-12-14T07:15:28.440Z,83.29
2018-12-14T07:16:28.409Z,83.61
2018-12-14T07:17:28.399Z,83.75
2018-12-14T07:18:28.387Z,83.33
2018-12-14T07:19:28.736Z,83.54
2018-12-14T07:20:28.383Z,83.18
2018-12-14T07:21:28.356Z,83.29
2018-12-14T07:22:28.347Z,83.18
2018-12-14T07:23:28.333Z,83.33
2018-12-14T07:24:28.324Z,83.29
2018-12-14T07:25:28.338Z,83.33
2018-12-14T07:26:28.299Z,82.98
2018-12-14T07:27:28.286Z,83.08
2018-12-14T07:28:28.282Z,83.08
2018-12-14T07:29:28.268Z,82.98
2018-12-14T07:30:28.262Z,83.54
2018-12-14T07:31:28.258Z,83.08
2018-12-14T07:32:28.232Z,83.18
2018-12-14T07:33:28.221Z,83.40
2018-12-14T07:34:28.210Z,83.08
2018-12-14T07:35:28.226Z,83.29
2018-12-14T07:36:28.189Z,83.18
2018-12-14T07:37:28.179Z,83.18
2018-12-14T07:38:28.170Z,83.29
2018-12-14T07:39:28.158Z,83.18
2018-12-14T07:40:28.143Z,83.18
2018-12-14T07:41:28.152Z,83.01
2018-12-14T07:42:28.121Z,83.08
2018-12-14T07:43:28.553Z,82.98
2018-12-14T07:44:28.149Z,82.77
2018-12-14T07:45:28.118Z,82.25
2018-12-14T07:46:28.080Z,82.77
2018-12-14T07:47:28.065Z,82.46
2018-12-14T07:48:28.055Z,82.14
2018-12-14T07:49:28.046Z,82.77
2018-12-14T07:50:28.032Z,81.93
2018-12-14T07:51:28.039Z,82.87
2018-12-14T07:52:28.023Z,83.08
2018-12-14T07:53:28.000Z,83.08
2018-12-14T07:54:27.989Z,83.29
2018-12-14T07:55:27.980Z,83.29
2018-12-14T07:56:27.988Z,83.18
2018-12-14T07:57:27.954Z,82.81
2018-12-14T07:58:27.946Z,82.77
2018-12-14T07:59:27.934Z,82.56
2018-12-14T08:00:27.927Z,82.77
2018-12-14T08:01:28.001Z,82.77
2018-12-14T08:02:27.898Z,82.77
2018-12-14T08:03:27.889Z,82.67
2018-12-14T08:04:27.876Z,82.87
2018-12-14T08:05:27.868Z,83.01
2018-12-14T08:06:27.856Z,83.29
2018-12-14T08:07:27.862Z,83.18
2018-12-14T08:08:27.833Z,82.56
2018-12-14T08:09:27.825Z,82.67
2018-12-14T08:10:27.811Z,82.63
2018-12-14T08:11:27.798Z,82.42
2018-12-14T08:12:27.825Z,82.73
2018-12-14T08:13:27.777Z,81.90
2018-12-14T08:14:27.765Z,81.90
2018-12-14T08:15:27.757Z,81.69
2018-12-14T08:16:27.752Z,82.25
2018-12-14T08:17:27.734Z,82.14
2018-12-14T08:18:27.747Z,82.14
2018-12-14T08:19:27.711Z,82.21
2018-12-14T08:20:27.698Z,82.00
2018-12-14T08:21:27.689Z,82.35
2018-12-14T08:22:27.675Z,82.35
2018-12-14T08:23:27.679Z,81.48
2018-12-14T08:24:27.655Z,81.69
2018-12-14T08:25:27.643Z,81.90
2018-12-14T08:26:27.632Z,81.59
2018-12-14T08:27:27.620Z,81.27
2018-12-14T08:28:27.638Z,81.69
2018-12-14T08:29:27.597Z,81.59
2018-12-14T08:30:27.587Z,81.16
2018-12-14T08:31:27.577Z,81.21
2018-12-14T08:32:27.570Z,81.62
2018-12-14T08:33:27.554Z,81.83
2018-12-14T08:34:27.572Z,81.83
2018-12-14T08:35:27.538Z,81.52
2018-12-14T08:36:27.520Z,81.59
2018-12-14T08:37:27.507Z,81.59
2018-12-14T08:38:27.495Z,81.48
2018-12-14T08:39:27.517Z,81.59
2018-12-14T08:40:27.473Z,81.06
2018-12-14T08:41:27.466Z,81.38
2018-12-14T08:42:27.453Z,81.27
2018-12-14T08:43:27.443Z,81.48
2018-12-14T08:44:27.430Z,81.27
2018-12-14T08:45:27.439Z,81.69
2018-12-14T08:46:27.407Z,80.40
2018-12-14T08:47:27.397Z,81.48
2018-12-14T08:48:27.383Z,81.27
2018-12-14T08:49:27.376Z,80.33
2018-12-14T08:50:27.377Z,81.38
2018-12-14T08:51:27.350Z,80.75
2018-12-14T08:52:27.351Z,80.54
2018-12-14T08:53:27.328Z,81.06
2018-12-14T08:54:27.319Z,81.16
2018-12-14T08:55:27.337Z,80.96
2018-12-14T08:56:27.301Z,81.90
2018-12-14T08:57:27.284Z,80.65
2018-12-14T08:58:27.274Z,81.27
2018-12-14T08:59:27.262Z,81.06
2018-12-14T09:00:27.256Z,81.27
2018-12-14T09:01:27.259Z,81.06
2018-12-14T09:02:27.228Z,81.16
2018-12-14T09:03:27.220Z,81.59
2018-12-14T09:04:27.206Z,82.00
2018-12-14T09:05:27.195Z,80.82
2018-12-14T09:06:27.212Z,80.75
2018-12-14T09:07:27.172Z,80.44
2018-12-14T09:08:27.161Z,80.96
2018-12-14T09:09:27.153Z,80.85
2018-12-14T09:10:27.139Z,79.88
2018-12-14T09:11:27.133Z,79.88
2018-12-14T09:12:27.137Z,79.88
2018-12-14T09:13:27.109Z,80.13
2018-12-14T09:14:27.099Z,80.96
2018-12-14T09:15:27.086Z,81.38
2018-12-14T09:16:27.073Z,81.27
2018-12-14T09:17:27.076Z,81.16
2018-12-14T09:18:27.050Z,80.54
2018-12-14T09:19:27.038Z,80.44
2018-12-14T09:20:27.027Z,80.44
2018-12-14T09:21:27.020Z,81.06
2018-12-14T09:22:27.035Z,81.27
2018-12-14T09:23:26.994Z,81.27
2018-12-14T09:24:26.985Z,81.27
2018-12-14T09:25:26.972Z,81.10
2018-12-14T09:26:26.960Z,81.16
2018-12-14T09:27:26.956Z,80.96
2018-12-14T09:28:26.955Z,81.06
2018-12-14T09:29:26.929Z,80.96
2018-12-14T09:30:26.915Z,79.91
2018-12-14T09:31:26.905Z,79.81
2018-12-14T09:32:26.894Z,80.13
2018-12-14T09:33:26.901Z,80.23
2018-12-14T09:34:26.870Z,80.85
2018-12-14T09:35:26.860Z,79.81
2018-12-14T09:36:26.850Z,79.91
2018-12-14T09:37:26.839Z,80.33
2018-12-14T09:38:26.854Z,80.54
2018-12-14T09:39:26.818Z,80.96
2018-12-14T09:40:26.803Z,80.75
2018-12-14T09:41:26.792Z,80.75
2018-12-14T09:42:26.781Z,80.23
2018-12-14T09:43:26.771Z,80.65
2018-12-14T09:44:26.779Z,80.23
2018-12-14T09:45:26.747Z,80.13
2018-12-14T09:46:26.737Z,79.50
2018-12-14T09:47:26.728Z,79.53
2018-12-14T09:48:26.718Z,80.58
2018-12-14T09:49:26.731Z,80.65
2018-12-14T09:50:26.691Z,80.68
2018-12-14T09:51:26.681Z,80.79
2018-12-14T09:52:26.668Z,80.89
2018-12-14T09:53:26.660Z,80.89
2018-12-14T09:54:26.651Z,79.60
2018-12-14T09:55:26.658Z,79.43
2018-12-14T09:56:26.627Z,79.74
2018-12-14T09:57:26.615Z,79.60
2018-12-14T09:58:26.602Z,79.81
2018-12-14T09:59:26.600Z,79.50
2018-12-14T10:00:26.596Z,79.29
2018-12-14T10:01:26.570Z,79.08
2018-12-14T10:02:26.559Z,79.25
2018-12-14T10:03:26.547Z,79.08
2018-12-14T10:04:26.536Z,78.77
2018-12-14T10:05:26.555Z,77.17
2018-12-14T10:06:26.522Z,77.62
2018-12-14T10:07:26.505Z,78.25
2018-12-14T10:08:26.490Z,78.35
2018-12-14T10:09:26.479Z,78.21
2018-12-14T10:10:26.470Z,78.04
2018-12-14T10:11:26.476Z,78.25
2018-12-14T10:12:26.446Z,78.25
2018-12-14T10:13:26.437Z,78.31
2018-12-14T10:14:26.423Z,78.31
2018-12-14T10:15:26.411Z,78.45
2018-12-14T10:16:26.433Z,77.94
2018-12-14T10:17:26.389Z,77.00
2018-12-14T10:18:26.378Z,77.51
2018-12-14T10:19:26.366Z,77.20
2018-12-14T10:20:26.424Z,77.06
2018-12-14T10:21:26.343Z,77.17
2018-12-14T10:22:26.351Z,76.75
2018-12-14T10:23:26.321Z,76.86
2018-12-14T10:24:26.314Z,76.75
2018-12-14T10:25:26.308Z,76.96
2018-12-14T10:26:26.288Z,77.17
2018-12-14T10:27:26.298Z,77.06
2018-12-14T10:28:26.269Z,77.17
2018-12-14T10:29:26.259Z,76.96
2018-12-14T10:30:26.245Z,77.17
2018-12-14T10:31:26.233Z,77.31
2018-12-14T10:32:26.247Z,77.10
2018-12-14T10:33:26.211Z,77.41
2018-12-14T10:34:26.197Z,77.31
2018-12-14T10:35:26.190Z,77.00
2018-12-14T10:36:26.180Z,77.31
2018-12-14T10:37:26.164Z,77.31
2018-12-14T10:38:26.171Z,77.41
2018-12-14T10:39:26.147Z,77.20
2018-12-14T10:40:26.134Z,77.20
2018-12-14T10:41:26.127Z,77.10
2018-12-14T10:42:26.108Z,77.24
2018-12-14T10:43:26.133Z,77.31
2018-12-14T10:44:29.809Z,77.51
2018-12-14T10:45:26.082Z,77.55
2018-12-14T10:46:26.064Z,77.62
2018-12-14T10:47:26.055Z,78.07
2018-12-14T10:48:26.041Z,78.80
2018-12-14T10:49:26.054Z,78.18
2018-12-14T10:50:26.024Z,78.39
2018-12-14T10:51:26.012Z,78.39
2018-12-14T10:52:25.998Z,78.25
2018-12-14T10:53:25.988Z,78.56
2018-12-14T10:54:25.990Z,77.90
2018-12-14T10:55:25.962Z,78.04
2018-12-14T10:56:25.950Z,77.37
2018-12-14T10:57:25.939Z,77.37
2018-12-14T10:58:25.928Z,77.48
2018-12-14T10:59:25.950Z,77.17
2018-12-14T11:00:25.906Z,77.06
2018-12-14T11:01:25.895Z,76.54
2018-12-14T11:02:25.886Z,76.96
2018-12-14T11:03:25.871Z,77.17
2018-12-14T11:04:25.860Z,76.86
2018-12-14T11:05:25.869Z,77.48
2018-12-14T11:06:25.839Z,77.27
2018-12-14T11:07:25.828Z,77.48
2018-12-14T11:08:25.817Z,77.06
2018-12-14T11:09:25.814Z,77.03
2018-12-14T11:10:25.821Z,77.13
2018-12-14T11:11:25.783Z,77.03
2018-12-14T11:12:25.772Z,76.54
2018-12-14T11:13:25.762Z,77.13
2018-12-14T11:14:25.748Z,77.48
2018-12-14T11:15:25.735Z,77.06
2018-12-14T11:16:25.740Z,77.06
2018-12-14T11:17:25.718Z,77.06
2018-12-14T11:18:25.704Z,77.17
2018-12-14T11:19:25.696Z,77.37
2018-12-14T11:20:25.683Z,77.27
2018-12-14T11:21:25.693Z,76.96
2018-12-14T11:22:25.661Z,77.20
2018-12-14T11:23:25.647Z,77.10
2018-12-14T11:24:25.635Z,77.20
2018-12-14T11:25:25.625Z,76.96
2018-12-14T11:26:25.640Z,77.10
2018-12-14T11:27:25.599Z,76.75
2018-12-14T11:28:25.590Z,77.51
2018-12-14T11:29:25.582Z,77.51
2018-12-14T11:30:25.569Z,77.17
2018-12-14T11:31:25.557Z,77.48
2018-12-14T11:32:25.565Z,77.06
2018-12-14T11:33:25.535Z,77.06
2018-12-14T11:34:29.657Z,77.06
2018-12-14T11:35:25.516Z,77.37
2018-12-14T11:36:25.503Z,77.06
2018-12-14T11:37:25.517Z,77.06
2018-12-14T11:38:25.478Z,77.06
2018-12-14T11:39:25.466Z,76.96
2018-12-14T11:40:25.455Z,77.06
2018-12-14T11:41:25.445Z,77.06
2018-12-14T11:42:25.433Z,76.96
2018-12-14T11:43:25.449Z,77.06
2018-12-14T11:44:25.417Z,77.06
2018-12-14T11:45:25.400Z,77.17
2018-12-14T11:46:25.397Z,77.27
2018-12-14T11:47:25.378Z,77.17
2018-12-14T11:48:25.384Z,77.17
2018-12-14T11:49:25.363Z,77.17
2018-12-14T11:50:25.353Z,77.58
2018-12-14T11:51:25.334Z,77.27
2018-12-14T11:52:25.320Z,76.82
2018-12-14T11:53:25.337Z,76.40
2018-12-14T11:54:25.301Z,75.98
2018-12-14T11:55:25.289Z,75.15
2018-12-14T11:56:25.275Z,76.02
2018-12-14T11:57:25.264Z,76.65
2018-12-14T11:58:25.253Z,76.23
2018-12-14T11:59:25.256Z,75.81
2018-12-14T12:00:25.231Z,76.12
2018-12-14T12:01:25.221Z,76.23
2018-12-14T12:02:25.209Z,76.12
2018-12-14T12:03:25.197Z,76.02
2018-12-14T12:04:25.214Z,76.23
2018-12-14T12:05:25.174Z,76.12
2018-12-14T12:06:25.165Z,76.12
2018-12-14T12:07:25.151Z,76.43
2018-12-14T12:08:25.143Z,76.43
2018-12-14T12:09:25.131Z,77.06
2018-12-14T12:10:25.137Z,77.17
2018-12-14T12:11:25.106Z,77.37
2018-12-14T12:12:25.095Z,77.27
2018-12-14T12:13:25.087Z,77.34
2018-12-14T12:14:27.054Z,77.06
2018-12-14T12:15:25.096Z,78.42
2018-12-14T12:16:25.058Z,78.52
2018-12-14T12:17:25.040Z,78.63
2018-12-14T12:18:25.028Z,78.94
2018-12-14T12:19:25.019Z,78.83
2018-12-14T12:20:25.010Z,78.63
2018-12-14T12:21:25.015Z,78.73
2018-12-14T12:22:24.988Z,80.78
2018-12-14T12:23:24.971Z,79.11
2018-12-14T12:24:24.969Z,78.91
2018-12-14T12:25:24.955Z,79.01
2018-12-14T12:26:24.960Z,78.63
2018-12-14T12:27:24.932Z,78.69
2018-12-14T12:28:24.915Z,78.59
2018-12-14T12:29:24.902Z,77.55
2018-12-14T12:30:24.896Z,77.27
2018-12-14T12:31:24.909Z,77.17
2018-12-14T12:32:24.871Z,77.37
2018-12-14T12:33:24.859Z,77.06
2018-12-14T12:34:24.849Z,77.06
2018-12-14T12:35:24.836Z,77.27
2018-12-14T12:36:24.827Z,77.17
2018-12-14T12:37:24.846Z,77.06
2018-12-14T12:38:24.802Z,77.17
2018-12-14T12:39:24.793Z,76.54
2018-12-14T12:40:24.781Z,75.92
2018-12-14T12:41:24.771Z,75.81
2018-12-14T12:42:24.758Z,75.71
2018-12-14T12:43:24.765Z,75.50
2018-12-14T12:44:24.744Z,75.71
2018-12-14T12:45:24.725Z,76.02
2018-12-14T12:46:24.715Z,76.02
2018-12-14T12:47:24.702Z,75.50
2018-12-14T12:48:24.719Z,75.81
2018-12-14T12:49:24.688Z,75.29
2018-12-14T12:50:24.674Z,75.18
2018-12-14T12:51:24.655Z,75.18
2018-12-14T12:52:24.646Z,75.40